Aérodrome :
LOGIN :

S'inscrire | Disclaimer

   EN    FR    IT 

 










Légende :    VFR   VFR Marginal   IFR   IFR Intensif   IFR Très Intensif
Visi : 
Plafond : 
>= 8 km
>= 3000ft
5 à 8 km
1000 à 3000 ft
1500m à 5 km
500 à 1000 ft
800 à 1500m
200 à 500 ft
< 800m
< 200 ft
Symboles :   Orages  Brouillard  Fortes neiges  Fortes précipitations  Vent > 20 kt
SIGMETs :   Divers  Orages  Givrage  Turbulence  Onde Orograph.  Cendres Volcan.






- Altitude de l'aérodrome : 1202 ft
- Code IATA : IGS


ETSI - Ingolstadt

DERNIER METAR :
  • 182220Z AUTO 22004KT 8000 // ////// 05/M02 Q1024 ///

METARs EXPIRÉS :
  • 182120Z AUTO 23003KT 8000 // ////// 05/M01 Q1025 ///
  • 182054Z 20005KT 9999 BKN060 04/M01 Q1025 BLU FCST CANCEL
  • 182020Z 21003KT 9999 BKN070 05/M01 Q1026 BLU BLU

TAF AMD TAF ETSI
Valide du 18 à 15h jusqu'au 19 à 00h UTC


182053Z 1815/1824 28010G20KT 9999 NSW BKN050
BECMG 1815/1817 25007KT 9999 NSW SCT060 CANCEL 2055



MET'MAP, la Météo Aéronautique d'un coup d'oeil ! - Copyright ORBIFLY Décembre 2007 - Disclaimer

ORBIFLY MET'MAP TEAM :

Programmation & Développement : Alexandra Zaïnal
Sur une idée originale de : Baudouin d'Aumeries
Assistance à la programmation : Marc-Olivier Méhu
Soutien technique & logistique : Manuel Goepfert

Contact : metmap@orbifly.com




SOURCES & CREDITS :

   NOAA